UNR Ag. Experiment Farm, Sparks, Nevada Weather observations

Data are for 10 minute period ending at time listed.
 Day   Time   Solar   Ave.   Ave.  Ave.  Vector  Max.   Baro.   Total    
  of    of     Rad.   Air    Rel.  Wind   Wind   Wind  Press.  Precip.   
Year   Day            Temp.  Hum.  Speed  Dir.   Gust                    
2014   (PST)  Kw/m2    F      %     mph   deg.    mph    mb.     in.     
-------------------------------------------------------------------------
 210    0:00   0.00   68.3    57    1.0    98     2.4   869.7    0.00 
 210    0:10   0.00   66.4    62    1.7   169     2.6   869.6    0.00 
 210    0:20   0.00   67.1    59    1.4   119     3.1   869.5    0.00 
 210    0:30   0.00   67.6    59    0.6    50     1.9   869.5    0.00 
 210    0:40   0.00   65.4    66    2.0   359     3.1   869.5    0.00 
 210    0:50   0.00   64.5    71    1.4    26     2.8   869.5    0.00 
 210    1:00   0.00   65.3    66    1.3    14     2.1   869.6    0.00 
 210    1:10   0.00   66.8    62    1.2    59     2.3   869.6    0.00 
 210    1:20   0.00   66.2    63    1.4   352     2.9   869.6    0.00 
 210    1:30   0.00   66.5    61    2.1     4     3.9   869.7    0.00 
 210    1:40   0.00   66.1    62    1.1   325     2.1   869.7    0.00 
 210    1:50   0.00   65.5    64    0.6   233     2.0   869.8    0.00 
 210    2:00   0.00   66.7    61    0.9   228     2.2   869.8    0.00 
 210    2:10   0.00   66.3    63    0.4   230     1.6   869.9    0.00 
 210    2:20   0.00   65.1    67    1.7   205     2.7   869.9    0.00 
 210    2:30   0.00   65.5    66    1.4   201     2.1   869.9    0.00 
 210    2:40   0.00   65.0    68    0.7   198     1.5   870.0    0.00 
 210    2:50   0.00   64.8    69    0.7   196     1.4   869.9    0.00 
 210    3:00   0.00   64.9    69    0.6   196     1.7   869.9    0.00 
 210    3:10   0.00   64.7    68    0.7   196     1.8   869.9    0.00 
 210    3:20   0.00   64.1    72    0.0   352     0.9   870.0    0.00 
 210    3:30   0.00   62.9    77    0.6     0     1.8   870.0    0.00 
 210    3:40   0.00   62.5    81    1.6     0     1.9   870.0    0.00 
 210    3:50   0.00   63.3    80    1.5   136     2.6   870.0    0.00 
 210    4:00   0.00   63.1    78    0.7   179     2.2   870.0    0.00 
 210    4:10   0.00   62.7    80    1.0     4     2.1   870.0    0.00 
 210    4:20   0.00   62.6    82    1.8   329     3.1   870.0    0.00 
 210    4:30   0.00   62.7    83    1.3   267     3.2   870.0    0.00 
 210    4:40   0.00   63.0    80    0.6   330     2.7   870.1    0.00 
 210    4:50   0.00   63.5    80    0.7   338     1.6   870.0    0.00 
 210    5:00   0.00   63.4    80    0.2   194     1.8   870.1    0.00 
 210    5:10   0.00   62.8    82    0.3   197     1.3   870.0    0.00 
 210    5:20   0.01   62.7    82    0.5   225     2.0   870.0    0.00 
 210    5:30   0.02   62.9    81    0.6   291     1.9   870.1    0.00 
 210    5:40   0.03   62.8    82    0.0   212     0.9   870.1    0.00 
 210    5:50   0.03   63.2    82    1.1   200     2.2   870.1    0.00 
 210    6:00   0.04   63.2    81    1.2   230     2.3   870.2    0.00 
 210    6:10   0.04   64.4    76    1.2   241     2.0   870.3    0.00 
 210    6:20   0.05   64.9    77    0.8   217     1.5   870.3    0.00 
 210    6:30   0.06   65.1    75    0.0   210     0.5   870.3    0.00 
 210    6:40   0.08   66.1    77    1.1   112     2.9   870.3    0.00 
 210    6:50   0.08   66.0    78    2.1   121     3.3   870.5    0.00 
 210    7:00   0.08   66.6    78    0.3   150     1.6   870.6    0.00 
 210    7:10   0.11   67.6    77    0.0   134     0.5   870.6    0.00 
 210    7:20   0.16   68.3    75    0.2   210     0.9   870.6    0.00 
 210    7:30   0.18   69.9    70    0.0   354     0.8   870.6    0.00 
 210    7:40   0.28   72.1    56    1.0    86     3.4   870.6    0.00 
 210    7:50   0.43   74.7    44    3.3    25     6.9   870.5    0.00 
 210    8:00   0.48   76.3    38    4.4    30     6.6   870.5    0.00 
 210    8:10   0.44   76.8    36    4.2    24     6.5   870.5    0.00 
 210    8:20   0.31   77.1    34    5.2    40     8.0   870.6    0.00 
 210    8:30   0.49   77.8    34    5.9    59     8.0   870.6    0.00 
 210    8:40   0.38   78.5    34    5.6    57     8.0   870.6    0.00 
 210    8:50   0.53   78.8    36    5.4    57     8.0   870.6    0.00 
 210    9:00   0.61   80.7    32    5.6    55     7.5   870.5    0.00 
 210    9:10   0.60   81.3    30    4.0    51     7.2   870.5    0.00 
 210    9:20   0.64   82.1    28    4.8    73     8.2   870.6    0.00 
 210    9:30   0.70   83.0    30    4.2    51     6.1   870.6    0.00 
 210    9:40   0.67   83.6    26    4.1    69     8.8   870.6    0.00 
 210    9:50   0.72   84.1    25    2.8    69     5.7   870.5    0.00 
 210   10:00   0.75   85.0    26    3.9    56     7.9   870.5    0.00 
 210   10:10   0.72   84.1    27    6.0    33    13.3   870.4    0.00 
 210   10:20   0.82   83.7    28    7.8    13    13.9   870.4    0.00 
 210   10:30   0.84   83.6    31    8.1   354    13.7   870.3    0.00 
 210   10:40   0.91   83.6    29    8.6   340    14.7   870.3    0.00 
 210   10:50   0.84   84.6    28    7.3     6    11.2   870.2    0.00 
 210   11:00   0.72   84.6    26    6.2   350     9.9   870.2    0.00 
 210   11:10   0.88   85.4    29    5.1   315    10.8   870.2    0.00 
 210   11:20   0.93   85.4    29    8.3   338    12.3   870.1    0.00 
 210   11:30   1.07   86.5    25    3.6   338     8.2   870.1    0.00 
 210   11:40   0.59   86.4    25    7.6   320    12.5   869.9    0.00 
 210   11:50   1.05   85.8    24    5.7   283    13.2   869.9    0.00 
 210   12:00   0.90   87.4    26    7.5   341    21.0   869.8    0.00 
 210   12:10   0.96   87.2    25    5.9   346    12.8   869.7    0.00 
 210   12:20   0.98   87.4    25    6.8   352    14.0   869.7    0.00 
 210   12:30   0.78   86.8    26    7.7   312    16.0   869.5    0.00 
 210   12:40   0.30   84.6    27    6.1   329    15.9   869.5    0.00 
 210   12:50   0.26   82.8    29    8.0   334    12.4   869.5    0.00 
 210   13:00   0.27   83.3    27    7.6   313    17.8   869.5    0.00 
 210   13:10   0.28   83.2    28    6.0   313    11.2   869.5    0.00 
 210   13:20   0.31   82.8    31    6.2   324     9.6   869.5    0.00 
 210   13:30   0.28   83.0    27   10.9   327    16.0   869.5    0.00 
 210   13:40   0.30   83.0    28    7.4   299    13.7   869.4    0.00 
 210   13:50   0.35   83.5    27    7.9   312    13.1   869.4    0.00 
 210   14:00   0.56   84.6    26    9.6   311    15.3   869.3    0.00 
 210   14:10   0.58   85.4    26    8.5   308    15.7   869.2    0.00 
 210   14:20   0.66   85.2    27    8.3   327    13.2   869.1    0.00 
 210   14:30   0.90   86.4    26   10.3   321    17.7   869.1    0.00 
 210   14:40   0.67   86.6    24    9.9   296    15.2   868.9    0.00 
 210   14:50   0.53   85.0    25    8.4   308    15.0   868.9    0.00 
 210   15:00   0.80   86.4    26    8.1   309    14.0   868.8    0.00 
 210   15:10   0.49   85.9    26    9.1   309    16.7   868.8    0.00 
 210   15:20   0.57   85.7    24    8.9   331    16.0   868.7    0.00 
 210   15:30   0.38   85.1    25    7.2   335    12.6   868.7    0.00 
 210   15:40   0.29   84.8    26    5.7   327     9.8   868.8    0.00 
 210   15:50   0.54   84.8    26    8.7   330    15.9   868.7    0.00 
 210   16:00   0.67   86.1    26    8.5   329    16.2   868.6    0.00 
 210   16:10   0.62   86.7    24    7.4   335    15.3   868.6    0.00 
 210   16:20   0.56   87.0    24    4.1   341     8.6   868.6    0.00 
 210   16:30   0.59   88.3    23    4.8   330     8.7   868.6    0.00 
 210   16:40   0.36   86.1    24    6.8   308    13.9   868.5    0.00 
 210   16:50   0.18   83.8    26    6.7   304    11.9   868.5    0.00 
 210   17:00   0.14   83.3    25    4.0   299     7.4   868.5    0.00 
 210   17:10   0.16   83.2    27    5.1   281     8.5   868.5    0.00 
 210   17:20   0.17   83.4    25    5.7   270    10.0   868.5    0.00 
 210   17:30   0.16   83.4    27    9.4   209    18.5   868.7    0.00 
 210   17:40   0.12   80.5    30   11.4   190    20.8   868.8    0.00 
 210   17:50   0.17   79.8    30   14.1   190    24.0   868.8    0.00 
 210   18:00   0.21   80.3    29   14.0   180    21.1   868.9    0.00 
 210   18:10   0.15   80.9    28   12.7   177    23.7   868.9    0.00 
 210   18:20   0.10   80.5    28   14.7   173    22.2   868.9    0.00 
 210   18:30   0.07   80.3    28   14.6   174    21.5   868.9    0.00 
 210   18:40   0.04   80.1    28   13.2   172    20.7   868.8    0.00 
 210   18:50   0.03   79.6    28   11.9   170    22.0   868.9    0.00 
 210   19:00   0.02   79.1    28   10.3   169    15.7   868.8    0.00 
 210   19:10   0.01   79.0    28    9.4   166    15.3   868.9    0.00 
 210   19:20   0.01   78.9    28    9.0   169    14.5   869.0    0.00 
 210   19:30   0.00   78.1    30    7.3   170    12.9   869.1    0.00 
 210   19:40   0.00   77.4    33    3.7   191    11.5   869.2    0.00 
 210   19:50   0.00   75.2    34    4.8   180    11.5   869.4    0.00 
 210   20:00   0.00   76.1    35    4.9   197    10.6   869.5    0.00 
 210   20:10   0.00   75.2    35    5.0   186     8.9   869.6    0.00 
 210   20:20   0.00   76.3    33    4.8   188     9.0   869.7    0.00 
 210   20:30   0.00   77.6    31    1.8   180     4.5   869.7    0.00 
 210   20:40   0.00   75.3    36    0.5   136     2.7   869.8    0.00 
 210   20:50   0.00   74.0    39    2.3   138     4.2   869.8    0.00 
 210   21:00   0.00   71.8    46    1.5   223     2.3   869.9    0.00 
 210   21:10   0.00   71.0    45    1.3    73     2.4   869.9    0.00 
 210   21:20   0.00   72.2    42    1.4     7     3.1   869.9    0.00 
 210   21:30   0.00   71.4    44    1.4    56     3.1   869.9    0.00 
 210   21:40   0.00   70.7    45    3.5    70     5.4   870.0    0.00 
 210   21:50   0.00   69.6    46    4.8    52     5.7   870.1    0.00 
 210   22:00   0.00   70.0    45    4.0    30     5.6   870.1    0.00 
 210   22:10   0.00   70.9    42    5.5    18     7.4   870.1    0.00 
 210   22:20   0.00   72.2    39    5.9     8     7.3   870.0    0.00 
 210   22:30   0.00   74.3    33    3.8    39     6.1   869.9    0.00 
 210   22:40   0.00   72.0    38    3.3    55     4.4   869.9    0.00 
 210   22:50   0.00   72.1    36    1.0   340     3.4   869.9    0.00 
 210   23:00   0.00   66.9    55    2.1   204     3.3   869.8    0.00 
 210   23:10   0.00   64.0    60    2.0    72     4.6   869.8    0.00 
 210   23:20   0.00   63.4    60    4.5   245     5.2   869.7    0.00 
 210   23:30   0.00   64.5    57    4.1   229     5.2   869.6    0.00 

Return to Sparks, Nevada, UNR Ag Experiment Farm graphs page.


Western Regional Climate Center,wrcc@dri.edu